createdAt,value
2022-10-31T00:00:08.292Z,7.30
2022-10-31T00:05:33.957Z,7.20
2022-10-31T00:10:39.876Z,7.00
2022-10-31T00:15:42.807Z,7.00
2022-10-31T00:20:45.373Z,7.00
2022-10-31T00:25:48.044Z,7.10
2022-10-31T00:30:50.428Z,7.20
2022-10-31T00:35:52.903Z,7.20
2022-10-31T00:40:55.549Z,7.20
2022-10-31T00:45:58.104Z,7.20
2022-10-31T00:51:01.073Z,7.00
2022-10-31T00:56:04.501Z,7.00
2022-10-31T01:01:07.084Z,6.80
2022-10-31T01:06:12.922Z,6.90
2022-10-31T01:11:16.535Z,7.00
2022-10-31T01:16:23.335Z,7.00
2022-10-31T01:21:28.956Z,7.00
2022-10-31T01:26:34.669Z,7.00
2022-10-31T01:31:39.290Z,6.90
2022-10-31T01:36:42.592Z,6.70
2022-10-31T01:41:49.292Z,6.60
2022-10-31T01:46:59.528Z,6.50
2022-10-31T01:52:07.957Z,6.40
2022-10-31T01:57:13.816Z,6.50
2022-10-31T02:02:19.008Z,6.70
2022-10-31T02:07:28.290Z,6.60
2022-10-31T02:12:37.123Z,6.60
2022-10-31T02:17:40.250Z,6.60
2022-10-31T02:23:00.779Z,6.40
2022-10-31T02:28:22.125Z,6.40
2022-10-31T02:33:31.108Z,6.30
2022-10-31T02:38:46.598Z,6.30
2022-10-31T02:44:03.253Z,6.50
2022-10-31T02:49:17.589Z,6.50
2022-10-31T02:54:25.439Z,6.40
2022-10-31T02:59:31.887Z,6.40
2022-10-31T03:04:40.199Z,6.40
2022-10-31T03:10:07.235Z,6.30
2022-10-31T03:15:23.592Z,6.30
2022-10-31T03:20:37.533Z,6.30
2022-10-31T03:25:41.865Z,6.30
2022-10-31T03:30:46.402Z,6.30
2022-10-31T03:35:53.702Z,6.30
2022-10-31T03:40:59.412Z,6.30
2022-10-31T03:46:02.086Z,6.00
2022-10-31T03:51:11.015Z,6.00
2022-10-31T03:56:44.932Z,6.00
2022-10-31T04:01:53.579Z,6.20
2022-10-31T04:06:59.052Z,6.40
2022-10-31T04:12:04.004Z,6.20
2022-10-31T04:17:19.643Z,6.20
2022-10-31T04:22:22.145Z,6.20
2022-10-31T04:27:24.560Z,6.10
2022-10-31T04:32:27.317Z,6.20
2022-10-31T04:37:31.236Z,6.40
2022-10-31T04:42:34.141Z,6.40
2022-10-31T04:47:39.541Z,6.50
2022-10-31T04:52:43.736Z,6.50
2022-10-31T04:57:49.892Z,6.50
2022-10-31T05:02:56.295Z,6.60
2022-10-31T05:08:00.225Z,6.70
2022-10-31T05:13:05.991Z,6.80
2022-10-31T05:18:37.956Z,7.00
2022-10-31T05:23:58.740Z,7.20
2022-10-31T05:29:01.952Z,7.40
2022-10-31T05:34:05.335Z,7.60
2022-10-31T05:39:17.061Z,7.70
2022-10-31T05:44:23.618Z,8.00
2022-10-31T05:49:46.085Z,8.10
2022-10-31T05:55:07.271Z,8.20
2022-10-31T06:00:11.553Z,8.20
2022-10-31T06:05:23.651Z,8.30
2022-10-31T06:10:27.982Z,8.40
2022-10-31T06:15:31.816Z,8.60
2022-10-31T06:20:35.338Z,8.70
2022-10-31T06:25:39.669Z,8.70
2022-10-31T06:30:42.186Z,8.80
2022-10-31T06:35:48.689Z,9.00
2022-10-31T06:40:53.005Z,9.10
2022-10-31T06:46:06.017Z,9.20
2022-10-31T06:51:18.841Z,9.40
2022-10-31T06:56:21.912Z,9.50
2022-10-31T07:01:28.498Z,9.60
2022-10-31T07:06:31.410Z,9.70
2022-10-31T07:11:34.059Z,9.80
2022-10-31T07:16:36.977Z,10.00
2022-10-31T07:21:40.960Z,10.20
2022-10-31T07:26:48.416Z,10.30
2022-10-31T07:31:51.186Z,9.60
2022-10-31T07:37:03.011Z,10.50
2022-10-31T07:42:06.309Z,10.60
2022-10-31T07:47:09.932Z,10.80
2022-10-31T07:52:31.011Z,11.00
2022-10-31T07:58:10.368Z,11.20
2022-10-31T08:03:18.738Z,11.30
2022-10-31T08:08:39.569Z,11.40
2022-10-31T08:13:44.165Z,11.50
2022-10-31T08:18:49.913Z,11.50
2022-10-31T08:23:53.252Z,11.60
2022-10-31T08:28:59.300Z,11.70
2022-10-31T08:34:05.261Z,12.10
2022-10-31T08:39:36.611Z,12.10
2022-10-31T08:44:40.382Z,12.30
2022-10-31T08:49:42.915Z,12.60
2022-10-31T08:54:45.773Z,12.70
2022-10-31T09:00:07.549Z,12.80
2022-10-31T09:05:28.700Z,12.90
2022-10-31T09:10:35.297Z,13.10
2022-10-31T09:15:41.566Z,13.20
2022-10-31T09:20:52.422Z,13.10
2022-10-31T09:25:55.449Z,13.20
2022-10-31T09:31:19.149Z,13.40
2022-10-31T09:36:34.817Z,13.70
2022-10-31T09:42:19.625Z,14.00
2022-10-31T09:47:51.469Z,13.90
2022-10-31T09:53:32.206Z,14.00
2022-10-31T09:58:45.851Z,14.20
2022-10-31T10:03:54.421Z,14.10
2022-10-31T10:09:27.817Z,14.10
2022-10-31T10:15:09.851Z,14.10
2022-10-31T10:20:22.801Z,14.50
2022-10-31T10:25:32.771Z,14.50
2022-10-31T10:31:00.535Z,14.50
2022-10-31T10:36:07.761Z,14.50
2022-10-31T10:41:18.736Z,14.50
2022-10-31T10:46:44.420Z,14.60
2022-10-31T10:51:57.792Z,14.60
2022-10-31T10:57:27.834Z,14.90
2022-10-31T11:02:33.721Z,15.20
2022-10-31T11:07:40.930Z,15.30
2022-10-31T11:12:46.162Z,15.30
2022-10-31T11:17:55.265Z,15.30
2022-10-31T11:23:25.670Z,15.40
2022-10-31T11:28:33.503Z,15.20
2022-10-31T11:33:46.570Z,15.20
2022-10-31T11:38:49.949Z,15.10
2022-10-31T11:43:55.694Z,15.40
2022-10-31T11:48:58.362Z,15.60
2022-10-31T11:54:03.724Z,15.50
2022-10-31T11:59:16.636Z,15.50
2022-10-31T12:04:19.661Z,15.00
2022-10-31T12:09:29.345Z,14.80
2022-10-31T12:14:47.829Z,14.70
2022-10-31T12:20:00.517Z,14.80
2022-10-31T12:25:15.701Z,14.80
2022-10-31T12:30:24.984Z,14.80
2022-10-31T12:41:00.283Z,14.90
2022-10-31T12:46:06.204Z,15.10
2022-10-31T12:51:11.804Z,15.10
2022-10-31T12:56:20.302Z,15.20
2022-10-31T13:01:25.827Z,15.30
2022-10-31T13:06:43.538Z,15.20
2022-10-31T13:11:54.728Z,15.30
2022-10-31T13:16:58.012Z,15.30
2022-10-31T13:22:26.608Z,15.40
2022-10-31T13:27:54.146Z,15.40
2022-10-31T13:33:02.786Z,15.40
2022-10-31T13:38:22.881Z,15.40
2022-10-31T13:43:29.475Z,15.50
2022-10-31T13:48:37.953Z,15.40
2022-10-31T13:54:16.578Z,15.30
2022-10-31T13:59:23.716Z,15.20
2022-10-31T14:04:32.247Z,15.30
2022-10-31T14:09:34.645Z,15.20
2022-10-31T14:14:46.945Z,15.10
2022-10-31T14:20:21.425Z,15.10
2022-10-31T14:25:28.521Z,14.90
2022-10-31T14:30:31.758Z,14.80
2022-10-31T14:36:10.472Z,14.70
2022-10-31T14:41:23.322Z,14.40
2022-10-31T14:46:34.744Z,14.30
2022-10-31T14:51:45.345Z,14.00
2022-10-31T14:56:54.356Z,13.60
2022-10-31T15:02:19.405Z,13.30
2022-10-31T15:07:26.848Z,13.10
2022-10-31T15:12:32.003Z,12.80
2022-10-31T15:17:34.882Z,12.50
2022-10-31T15:22:37.663Z,12.20
2022-10-31T15:27:41.945Z,12.00
2022-10-31T15:32:55.314Z,11.90
2022-10-31T15:38:02.736Z,11.70
2022-10-31T15:43:07.872Z,11.60
2022-10-31T15:48:19.642Z,11.60
2022-10-31T15:53:47.819Z,11.50
2022-10-31T15:58:52.645Z,11.60
2022-10-31T16:04:05.831Z,11.30
2022-10-31T16:09:25.331Z,11.20
2022-10-31T16:14:31.428Z,11.50
2022-10-31T16:19:36.688Z,11.40
2022-10-31T16:25:02.864Z,11.30
2022-10-31T16:30:45.374Z,11.30
2022-10-31T16:35:55.809Z,11.30
2022-10-31T16:40:59.330Z,11.10
2022-10-31T16:46:01.777Z,11.20
2022-10-31T16:51:04.556Z,11.30
2022-10-31T16:56:34.151Z,11.30
2022-10-31T17:01:36.835Z,11.30
2022-10-31T17:06:39.311Z,11.30
2022-10-31T17:11:49.399Z,11.30
2022-10-31T17:16:52.500Z,11.40
2022-10-31T17:21:55.134Z,11.40
2022-10-31T17:26:57.547Z,11.40
2022-10-31T17:32:00.465Z,11.50
2022-10-31T17:37:02.983Z,11.40
2022-10-31T17:42:05.513Z,11.40
2022-10-31T17:47:07.891Z,11.30
2022-10-31T17:52:10.447Z,11.20
2022-10-31T17:57:13.022Z,11.20
2022-10-31T18:02:15.650Z,11.20
2022-10-31T18:07:19.469Z,11.00
2022-10-31T18:12:22.710Z,11.00
2022-10-31T18:17:25.590Z,10.90
2022-10-31T18:22:28.054Z,10.80
2022-10-31T18:27:30.668Z,10.70
2022-10-31T18:32:33.171Z,10.60
2022-10-31T18:37:35.781Z,10.60
2022-10-31T18:42:38.569Z,10.50
2022-10-31T18:47:41.125Z,10.40
2022-10-31T18:52:43.608Z,10.30
2022-10-31T18:57:46.802Z,10.10
2022-10-31T19:02:49.487Z,10.00
2022-10-31T19:07:52.035Z,9.90
2022-10-31T19:12:54.629Z,9.80
2022-10-31T19:17:57.432Z,9.70
2022-10-31T19:23:00.508Z,9.70
2022-10-31T19:28:03.499Z,9.70
2022-10-31T19:33:06.833Z,9.70
2022-10-31T19:38:09.290Z,9.80
2022-10-31T19:43:11.764Z,9.70
2022-10-31T19:48:14.095Z,9.80
2022-10-31T19:53:16.897Z,9.80
2022-10-31T19:58:19.332Z,9.70
2022-10-31T20:03:22.669Z,9.60
2022-10-31T20:08:25.585Z,9.60
2022-10-31T20:13:30.010Z,9.60
2022-10-31T20:18:32.906Z,9.60
2022-10-31T20:23:36.057Z,9.50
2022-10-31T20:28:41.437Z,9.40
2022-10-31T20:33:46.754Z,9.40
2022-10-31T20:38:50.833Z,9.40
2022-10-31T20:43:53.339Z,9.40
2022-10-31T20:48:56.105Z,9.20
2022-10-31T20:53:59.959Z,9.10
2022-10-31T20:59:02.453Z,9.00
2022-10-31T21:04:06.315Z,9.00
2022-10-31T21:09:09.102Z,9.00
2022-10-31T21:14:11.681Z,9.10
2022-10-31T21:19:14.109Z,9.00
2022-10-31T21:29:26.420Z,9.00
2022-10-31T21:34:28.920Z,8.90
2022-10-31T21:39:31.644Z,8.90
2022-10-31T21:44:34.174Z,8.80
2022-10-31T21:49:36.700Z,8.70
2022-10-31T21:54:39.230Z,8.60
2022-10-31T21:59:45.806Z,8.50
2022-10-31T22:04:50.293Z,8.40
2022-10-31T22:09:53.003Z,8.30
2022-10-31T22:14:55.477Z,8.30
2022-10-31T22:19:58.217Z,8.20
2022-10-31T22:25:00.641Z,8.30
2022-10-31T22:30:03.151Z,8.30
2022-10-31T22:35:05.973Z,8.00
2022-10-31T22:40:09.108Z,7.90
2022-10-31T22:45:11.584Z,8.00
2022-10-31T22:50:15.091Z,8.10
2022-10-31T22:55:17.709Z,8.10
2022-10-31T23:00:20.434Z,8.00
2022-10-31T23:05:23.161Z,8.10
2022-10-31T23:10:33.201Z,8.40
2022-10-31T23:15:37.768Z,8.40
2022-10-31T23:26:03.529Z,8.50
2022-10-31T23:31:05.926Z,8.50
2022-10-31T23:36:08.524Z,8.50
2022-10-31T23:41:10.928Z,8.50
2022-10-31T23:46:13.788Z,8.40
2022-10-31T23:51:16.328Z,8.40
2022-10-31T23:56:18.785Z,8.40
